sensor_id;sensor_type;location;lat;lon;timestamp;pressure;altitude;pressure_sealevel;temperature;humidity
25392;BME280;13329;48.402;11.718;2024-02-28T00:02:09;95985.03;;;6.63;90.93
25392;BME280;13329;48.402;11.718;2024-02-28T00:04:34;95987.06;;;6.61;90.76
25392;BME280;13329;48.402;11.718;2024-02-28T00:06:59;95988.19;;;6.65;90.67
25392;BME280;13329;48.402;11.718;2024-02-28T00:09:24;95985.66;;;6.70;90.01
25392;BME280;13329;48.402;11.718;2024-02-28T00:11:50;95990.47;;;6.73;89.74
25392;BME280;13329;48.402;11.718;2024-02-28T00:14:15;95986.06;;;6.50;90.07
25392;BME280;13329;48.402;11.718;2024-02-28T00:16:42;96002.13;;;6.54;90.22
25392;BME280;13329;48.402;11.718;2024-02-28T00:19:08;95996.09;;;6.53;91.00
25392;BME280;13329;48.402;11.718;2024-02-28T00:21:33;95993.44;;;6.65;90.11
25392;BME280;13329;48.402;11.718;2024-02-28T00:23:59;95992.91;;;6.51;89.30
25392;BME280;13329;48.402;11.718;2024-02-28T00:26:25;95989.06;;;6.42;90.12
25392;BME280;13329;48.402;11.718;2024-02-28T00:28:50;95990.22;;;6.23;91.52
25392;BME280;13329;48.402;11.718;2024-02-28T00:31:15;95995.41;;;6.46;90.93
25392;BME280;13329;48.402;11.718;2024-02-28T00:33:40;95984.13;;;6.46;89.50
25392;BME280;13329;48.402;11.718;2024-02-28T00:36:06;95989.19;;;6.35;88.01
25392;BME280;13329;48.402;11.718;2024-02-28T00:38:31;95997.53;;;6.09;88.39
25392;BME280;13329;48.402;11.718;2024-02-28T00:40:57;95988.53;;;6.28;88.00
25392;BME280;13329;48.402;11.718;2024-02-28T00:43:22;95994.41;;;5.88;87.78
25392;BME280;13329;48.402;11.718;2024-02-28T00:45:47;95995.66;;;5.62;88.59
25392;BME280;13329;48.402;11.718;2024-02-28T00:48:13;96004.44;;;5.68;88.80
25392;BME280;13329;48.402;11.718;2024-02-28T00:50:38;96002.09;;;5.36;88.01
25392;BME280;13329;48.402;11.718;2024-02-28T00:53:04;96013.28;;;5.44;89.53
25392;BME280;13329;48.402;11.718;2024-02-28T00:55:29;96015.09;;;5.55;91.87
25392;BME280;13329;48.402;11.718;2024-02-28T00:57:54;96009.44;;;5.70;92.88
25392;BME280;13329;48.402;11.718;2024-02-28T01:00:20;96020.69;;;5.47;95.10
25392;BME280;13329;48.402;11.718;2024-02-28T01:02:45;96018.06;;;5.47;96.00
25392;BME280;13329;48.402;11.718;2024-02-28T01:05:10;96029.28;;;5.35;96.69
25392;BME280;13329;48.402;11.718;2024-02-28T01:07:36;96030.31;;;5.34;97.42
25392;BME280;13329;48.402;11.718;2024-02-28T01:10:02;96033.97;;;5.45;95.94
25392;BME280;13329;48.402;11.718;2024-02-28T01:12:27;96041.81;;;5.45;92.50
25392;BME280;13329;48.402;11.718;2024-02-28T01:14:53;96049.00;;;5.50;91.48
25392;BME280;13329;48.402;11.718;2024-02-28T01:17:18;96054.22;;;5.50;90.00
25392;BME280;13329;48.402;11.718;2024-02-28T01:19:44;96051.81;;;5.36;90.10
25392;BME280;13329;48.402;11.718;2024-02-28T01:22:09;96055.50;;;5.47;90.04
25392;BME280;13329;48.402;11.718;2024-02-28T01:24:34;96065.50;;;5.50;89.38
25392;BME280;13329;48.402;11.718;2024-02-28T01:27:00;96071.72;;;5.37;88.56
25392;BME280;13329;48.402;11.718;2024-02-28T01:29:25;96072.38;;;5.03;88.19
25392;BME280;13329;48.402;11.718;2024-02-28T01:31:50;96089.69;;;4.49;91.68
25392;BME280;13329;48.402;11.718;2024-02-28T01:34:16;96087.50;;;4.64;91.08
25392;BME280;13329;48.402;11.718;2024-02-28T01:36:42;96084.41;;;4.55;89.32
25392;BME280;13329;48.402;11.718;2024-02-28T01:39:07;96087.34;;;4.77;89.03
25392;BME280;13329;48.402;11.718;2024-02-28T01:41:33;96094.78;;;4.80;89.05
25392;BME280;13329;48.402;11.718;2024-02-28T01:43:58;96097.97;;;4.46;88.85
25392;BME280;13329;48.402;11.718;2024-02-28T01:46:26;96104.53;;;4.05;93.90
25392;BME280;13329;48.402;11.718;2024-02-28T01:48:52;96101.94;;;4.48;92.83
25392;BME280;13329;48.402;11.718;2024-02-28T01:51:18;96096.19;;;4.40;91.79
25392;BME280;13329;48.402;11.718;2024-02-28T01:53:45;96100.88;;;4.56;94.35
25392;BME280;13329;48.402;11.718;2024-02-28T01:56:12;96102.25;;;4.77;93.56
25392;BME280;13329;48.402;11.718;2024-02-28T01:58:39;96102.03;;;4.78;91.42
25392;BME280;13329;48.402;11.718;2024-02-28T02:01:05;96107.81;;;4.44;90.83
25392;BME280;13329;48.402;11.718;2024-02-28T02:03:32;96116.75;;;4.36;90.69
25392;BME280;13329;48.402;11.718;2024-02-28T02:06:01;96113.22;;;4.67;89.14
25392;BME280;13329;48.402;11.718;2024-02-28T02:08:26;96107.31;;;4.53;91.19
25392;BME280;13329;48.402;11.718;2024-02-28T02:10:51;96109.06;;;4.78;91.63
25392;BME280;13329;48.402;11.718;2024-02-28T02:13:16;96101.31;;;4.71;90.94
25392;BME280;13329;48.402;11.718;2024-02-28T02:15:42;96104.94;;;4.70;90.81
25392;BME280;13329;48.402;11.718;2024-02-28T02:18:07;96099.41;;;4.78;90.01
25392;BME280;13329;48.402;11.718;2024-02-28T02:20:35;96102.81;;;4.97;89.52
25392;BME280;13329;48.402;11.718;2024-02-28T02:23:02;96103.63;;;4.61;90.12
25392;BME280;13329;48.402;11.718;2024-02-28T02:25:28;96099.34;;;4.85;93.27
25392;BME280;13329;48.402;11.718;2024-02-28T02:27:53;96105.38;;;4.85;93.81
25392;BME280;13329;48.402;11.718;2024-02-28T02:30:18;96112.63;;;4.65;95.65
25392;BME280;13329;48.402;11.718;2024-02-28T02:32:44;96106.53;;;4.71;96.13
25392;BME280;13329;48.402;11.718;2024-02-28T02:35:09;96110.88;;;4.77;97.44
25392;BME280;13329;48.402;11.718;2024-02-28T02:37:34;96107.47;;;4.95;96.19
25392;BME280;13329;48.402;11.718;2024-02-28T02:40:00;96113.28;;;4.97;96.28
25392;BME280;13329;48.402;11.718;2024-02-28T02:42:26;96110.47;;;4.99;96.63
25392;BME280;13329;48.402;11.718;2024-02-28T02:44:51;96111.16;;;4.87;95.92
25392;BME280;13329;48.402;11.718;2024-02-28T02:47:16;96110.22;;;4.82;98.05
25392;BME280;13329;48.402;11.718;2024-02-28T02:49:41;96108.13;;;4.91;98.56
25392;BME280;13329;48.402;11.718;2024-02-28T02:52:07;96095.34;;;5.01;98.64
25392;BME280;13329;48.402;11.718;2024-02-28T02:54:32;96099.69;;;5.07;99.12
25392;BME280;13329;48.402;11.718;2024-02-28T02:56:57;96104.78;;;5.02;97.75
25392;BME280;13329;48.402;11.718;2024-02-28T02:59:22;96106.84;;;5.30;98.26
25392;BME280;13329;48.402;11.718;2024-02-28T03:01:49;96109.66;;;5.47;95.74
25392;BME280;13329;48.402;11.718;2024-02-28T03:04:14;96109.34;;;5.06;95.23
25392;BME280;13329;48.402;11.718;2024-02-28T03:06:39;96105.34;;;5.22;96.70
25392;BME280;13329;48.402;11.718;2024-02-28T03:09:05;96114.81;;;5.05;97.12
25392;BME280;13329;48.402;11.718;2024-02-28T03:11:32;96113.22;;;5.04;98.34
25392;BME280;13329;48.402;11.718;2024-02-28T03:13:59;96114.94;;;4.92;97.90
25392;BME280;13329;48.402;11.718;2024-02-28T03:16:24;96108.19;;;5.02;97.33
25392;BME280;13329;48.402;11.718;2024-02-28T03:18:49;96110.47;;;4.99;97.54
25392;BME280;13329;48.402;11.718;2024-02-28T03:21:15;96098.81;;;5.13;96.65
25392;BME280;13329;48.402;11.718;2024-02-28T03:23:42;96108.53;;;5.24;96.28
25392;BME280;13329;48.402;11.718;2024-02-28T03:26:07;96112.34;;;4.92;97.66
25392;BME280;13329;48.402;11.718;2024-02-28T03:28:32;96120.72;;;5.12;97.55
25392;BME280;13329;48.402;11.718;2024-02-28T03:30:57;96126.56;;;5.14;96.90
25392;BME280;13329;48.402;11.718;2024-02-28T03:33:23;96122.97;;;5.27;95.33
25392;BME280;13329;48.402;11.718;2024-02-28T03:35:50;96125.41;;;5.10;96.37
25392;BME280;13329;48.402;11.718;2024-02-28T03:38:15;96127.44;;;4.89;97.89
25392;BME280;13329;48.402;11.718;2024-02-28T03:40:40;96129.38;;;5.12;97.79
25392;BME280;13329;48.402;11.718;2024-02-28T03:43:05;96132.44;;;4.91;97.35
25392;BME280;13329;48.402;11.718;2024-02-28T03:45:36;96130.22;;;4.95;98.57
25392;BME280;13329;48.402;11.718;2024-02-28T03:48:02;96127.84;;;4.50;100.00
25392;BME280;13329;48.402;11.718;2024-02-28T03:50:28;96129.69;;;4.86;100.00
25392;BME280;13329;48.402;11.718;2024-02-28T03:52:53;96139.06;;;4.94;98.82
25392;BME280;13329;48.402;11.718;2024-02-28T03:55:18;96141.81;;;4.62;98.38
25392;BME280;13329;48.402;11.718;2024-02-28T03:57:47;96155.22;;;4.47;100.00
25392;BME280;13329;48.402;11.718;2024-02-28T04:00:12;96153.44;;;4.66;100.00
25392;BME280;13329;48.402;11.718;2024-02-28T04:02:38;96165.41;;;4.74;100.00
25392;BME280;13329;48.402;11.718;2024-02-28T04:05:03;96159.16;;;4.56;98.97
25392;BME280;13329;48.402;11.718;2024-02-28T04:07:29;96162.66;;;4.87;97.71
25392;BME280;13329;48.402;11.718;2024-02-28T04:09:54;96157.19;;;4.88;94.22
25392;BME280;13329;48.402;11.718;2024-02-28T04:12:19;96175.22;;;4.97;95.04
25392;BME280;13329;48.402;11.718;2024-02-28T04:14:44;96184.22;;;4.82;94.80
25392;BME280;13329;48.402;11.718;2024-02-28T04:17:10;96180.03;;;5.00;94.09
25392;BME280;13329;48.402;11.718;2024-02-28T04:19:35;96175.00;;;5.17;92.54
25392;BME280;13329;48.402;11.718;2024-02-28T04:22:04;96172.19;;;5.00;91.12
25392;BME280;13329;48.402;11.718;2024-02-28T04:24:30;96175.06;;;4.92;90.64
25392;BME280;13329;48.402;11.718;2024-02-28T04:26:55;96170.72;;;5.04;90.78
25392;BME280;13329;48.402;11.718;2024-02-28T04:29:21;96180.53;;;4.90;89.88
25392;BME280;13329;48.402;11.718;2024-02-28T04:31:47;96179.25;;;4.74;91.36
25392;BME280;13329;48.402;11.718;2024-02-28T04:34:12;96185.81;;;4.83;91.34
25392;BME280;13329;48.402;11.718;2024-02-28T04:36:37;96191.69;;;4.97;90.45
25392;BME280;13329;48.402;11.718;2024-02-28T04:39:03;96202.25;;;4.91;90.98
25392;BME280;13329;48.402;11.718;2024-02-28T04:41:31;96201.16;;;4.80;94.55
25392;BME280;13329;48.402;11.718;2024-02-28T04:43:56;96201.38;;;4.97;94.18
25392;BME280;13329;48.402;11.718;2024-02-28T04:46:21;96209.47;;;4.88;92.11
25392;BME280;13329;48.402;11.718;2024-02-28T04:48:47;96211.97;;;5.02;91.64
25392;BME280;13329;48.402;11.718;2024-02-28T04:51:15;96211.28;;;5.13;91.82
25392;BME280;13329;48.402;11.718;2024-02-28T04:53:42;96212.00;;;5.20;90.10
25392;BME280;13329;48.402;11.718;2024-02-28T04:56:07;96221.94;;;5.11;89.67
25392;BME280;13329;48.402;11.718;2024-02-28T04:58:33;96221.50;;;4.96;89.36
25392;BME280;13329;48.402;11.718;2024-02-28T05:00:58;96222.94;;;5.10;89.53
25392;BME280;13329;48.402;11.718;2024-02-28T05:03:24;96227.53;;;5.15;88.36
25392;BME280;13329;48.402;11.718;2024-02-28T05:05:50;96226.13;;;5.12;88.16
25392;BME280;13329;48.402;11.718;2024-02-28T05:08:19;96230.28;;;5.02;88.99
25392;BME280;13329;48.402;11.718;2024-02-28T05:10:44;96231.97;;;5.14;88.87
25392;BME280;13329;48.402;11.718;2024-02-28T05:13:09;96239.03;;;5.32;88.25
25392;BME280;13329;48.402;11.718;2024-02-28T05:15:35;96245.78;;;5.40;87.38
25392;BME280;13329;48.402;11.718;2024-02-28T05:18:00;96253.63;;;5.40;87.42
25392;BME280;13329;48.402;11.718;2024-02-28T05:20:25;96244.25;;;5.14;88.36
25392;BME280;13329;48.402;11.718;2024-02-28T05:22:50;96262.84;;;5.24;89.93
25392;BME280;13329;48.402;11.718;2024-02-28T05:25:16;96253.34;;;4.86;90.78
25392;BME280;13329;48.402;11.718;2024-02-28T05:27:41;96254.53;;;4.91;93.80
25392;BME280;13329;48.402;11.718;2024-02-28T05:30:07;96255.44;;;5.21;92.40
25392;BME280;13329;48.402;11.718;2024-02-28T05:32:32;96259.22;;;5.44;91.50
25392;BME280;13329;48.402;11.718;2024-02-28T05:34:58;96258.34;;;5.50;90.28
25392;BME280;13329;48.402;11.718;2024-02-28T05:37:23;96264.09;;;5.40;91.31
25392;BME280;13329;48.402;11.718;2024-02-28T05:39:50;96262.72;;;5.56;90.55
25392;BME280;13329;48.402;11.718;2024-02-28T05:42:15;96272.59;;;5.54;91.13
25392;BME280;13329;48.402;11.718;2024-02-28T05:44:47;96269.31;;;5.58;90.93
25392;BME280;13329;48.402;11.718;2024-02-28T05:47:12;96280.22;;;5.55;91.90
25392;BME280;13329;48.402;11.718;2024-02-28T05:49:38;96281.97;;;5.61;90.19
25392;BME280;13329;48.402;11.718;2024-02-28T05:52:04;96289.56;;;5.51;91.18
25392;BME280;13329;48.402;11.718;2024-02-28T05:54:29;96301.41;;;5.10;92.15
25392;BME280;13329;48.402;11.718;2024-02-28T05:56:55;96305.34;;;4.13;95.77
25392;BME280;13329;48.402;11.718;2024-02-28T05:59:20;96322.53;;;4.27;99.24
25392;BME280;13329;48.402;11.718;2024-02-28T06:01:45;96321.09;;;3.93;100.00
25392;BME280;13329;48.402;11.718;2024-02-28T06:04:10;96329.09;;;3.98;100.00
25392;BME280;13329;48.402;11.718;2024-02-28T06:06:36;96334.63;;;3.64;100.00
25392;BME280;13329;48.402;11.718;2024-02-28T06:09:01;96334.28;;;4.05;100.00
25392;BME280;13329;48.402;11.718;2024-02-28T06:11:27;96335.53;;;3.96;100.00
25392;BME280;13329;48.402;11.718;2024-02-28T06:13:52;96331.56;;;4.31;100.00
25392;BME280;13329;48.402;11.718;2024-02-28T06:16:18;96332.88;;;4.72;100.00
25392;BME280;13329;48.402;11.718;2024-02-28T06:18:44;96334.72;;;4.97;100.00
25392;BME280;13329;48.402;11.718;2024-02-28T06:21:09;96335.88;;;5.26;99.45
25392;BME280;13329;48.402;11.718;2024-02-28T06:23:34;96340.63;;;5.54;96.34
25392;BME280;13329;48.402;11.718;2024-02-28T06:26:00;96346.16;;;5.64;94.11
25392;BME280;13329;48.402;11.718;2024-02-28T06:28:25;96338.28;;;5.46;93.77
25392;BME280;13329;48.402;11.718;2024-02-28T06:30:52;96348.06;;;5.57;94.37
25392;BME280;13329;48.402;11.718;2024-02-28T06:33:17;96346.91;;;5.71;93.18
25392;BME280;13329;48.402;11.718;2024-02-28T06:35:42;96349.53;;;5.71;92.61
25392;BME280;13329;48.402;11.718;2024-02-28T06:38:08;96355.31;;;5.55;94.18
25392;BME280;13329;48.402;11.718;2024-02-28T06:40:34;96364.38;;;5.34;96.43
25392;BME280;13329;48.402;11.718;2024-02-28T06:43:00;96361.25;;;5.00;98.66
25392;BME280;13329;48.402;11.718;2024-02-28T06:45:25;96370.03;;;5.31;98.43
25392;BME280;13329;48.402;11.718;2024-02-28T06:47:51;96367.38;;;5.12;98.49
25392;BME280;13329;48.402;11.718;2024-02-28T06:50:16;96376.06;;;5.31;99.50
25392;BME280;13329;48.402;11.718;2024-02-28T06:52:42;96378.50;;;5.08;100.00
25392;BME280;13329;48.402;11.718;2024-02-28T06:55:07;96379.47;;;4.82;100.00
25392;BME280;13329;48.402;11.718;2024-02-28T06:57:37;96382.53;;;5.29;100.00
25392;BME280;13329;48.402;11.718;2024-02-28T07:00:05;96385.50;;;5.57;98.08
25392;BME280;13329;48.402;11.718;2024-02-28T07:02:30;96389.19;;;5.50;98.01
25392;BME280;13329;48.402;11.718;2024-02-28T07:04:55;96393.31;;;5.39;97.99
25392;BME280;13329;48.402;11.718;2024-02-28T07:07:21;96395.72;;;5.40;99.06
25392;BME280;13329;48.402;11.718;2024-02-28T07:09:46;96404.19;;;5.11;100.00
25392;BME280;13329;48.402;11.718;2024-02-28T07:12:12;96398.81;;;5.56;100.00
25392;BME280;13329;48.402;11.718;2024-02-28T07:14:37;96395.44;;;5.49;99.04
25392;BME280;13329;48.402;11.718;2024-02-28T07:17:03;96395.06;;;5.70;98.35
25392;BME280;13329;48.402;11.718;2024-02-28T07:19:28;96394.00;;;5.96;96.26
25392;BME280;13329;48.402;11.718;2024-02-28T07:21:53;96402.88;;;5.95;96.55
25392;BME280;13329;48.402;11.718;2024-02-28T07:24:19;96406.97;;;5.84;97.02
25392;BME280;13329;48.402;11.718;2024-02-28T07:26:45;96405.84;;;5.99;97.96
25392;BME280;13329;48.402;11.718;2024-02-28T07:29:11;96395.94;;;5.82;97.79
25392;BME280;13329;48.402;11.718;2024-02-28T07:31:36;96405.94;;;6.10;97.58
25392;BME280;13329;48.402;11.718;2024-02-28T07:34:01;96398.91;;;6.23;96.07
25392;BME280;13329;48.402;11.718;2024-02-28T07:36:26;96405.25;;;6.33;94.86
25392;BME280;13329;48.402;11.718;2024-02-28T07:38:52;96402.78;;;6.38;93.35
25392;BME280;13329;48.402;11.718;2024-02-28T07:41:18;96397.53;;;6.68;92.48
25392;BME280;13329;48.402;11.718;2024-02-28T07:43:43;96402.47;;;6.77;91.50
25392;BME280;13329;48.402;11.718;2024-02-28T07:46:09;96396.75;;;6.68;91.12
25392;BME280;13329;48.402;11.718;2024-02-28T07:48:36;96402.34;;;6.72;91.85
25392;BME280;13329;48.402;11.718;2024-02-28T07:51:04;96407.75;;;6.88;90.58
25392;BME280;13329;48.402;11.718;2024-02-28T07:53:29;96410.97;;;6.90;91.12
25392;BME280;13329;48.402;11.718;2024-02-28T07:55:55;96410.22;;;6.72;91.21
25392;BME280;13329;48.402;11.718;2024-02-28T07:58:20;96410.25;;;6.83;91.72
25392;BME280;13329;48.402;11.718;2024-02-28T08:00:45;96415.13;;;6.80;91.08
25392;BME280;13329;48.402;11.718;2024-02-28T08:03:10;96407.91;;;6.63;91.75
25392;BME280;13329;48.402;11.718;2024-02-28T08:05:36;96411.47;;;6.51;92.22
25392;BME280;13329;48.402;11.718;2024-02-28T08:08:07;96406.84;;;6.53;93.25
25392;BME280;13329;48.402;11.718;2024-02-28T08:10:33;96412.19;;;6.76;93.44
25392;BME280;13329;48.402;11.718;2024-02-28T08:12:59;96414.53;;;6.66;93.07
25392;BME280;13329;48.402;11.718;2024-02-28T08:15:24;96416.84;;;6.56;92.92
25392;BME280;13329;48.402;11.718;2024-02-28T08:17:49;96414.09;;;6.51;94.16
25392;BME280;13329;48.402;11.718;2024-02-28T08:20:15;96412.03;;;6.71;93.47
25392;BME280;13329;48.402;11.718;2024-02-28T08:22:40;96416.94;;;6.67;92.88
25392;BME280;13329;48.402;11.718;2024-02-28T08:25:06;96422.97;;;6.68;93.63
25392;BME280;13329;48.402;11.718;2024-02-28T08:27:32;96420.03;;;6.76;93.44
25392;BME280;13329;48.402;11.718;2024-02-28T08:29:59;96421.91;;;6.87;91.99
25392;BME280;13329;48.402;11.718;2024-02-28T08:32:24;96427.31;;;6.74;92.47
25392;BME280;13329;48.402;11.718;2024-02-28T08:34:49;96432.63;;;6.98;91.70
25392;BME280;13329;48.402;11.718;2024-02-28T08:37:15;96432.28;;;6.94;90.88
25392;BME280;13329;48.402;11.718;2024-02-28T08:39:41;96429.84;;;7.23;89.31
25392;BME280;13329;48.402;11.718;2024-02-28T08:42:06;96434.84;;;7.12;89.87
25392;BME280;13329;48.402;11.718;2024-02-28T08:44:31;96440.09;;;7.12;90.99
25392;BME280;13329;48.402;11.718;2024-02-28T08:46:57;96438.94;;;7.08;89.52
25392;BME280;13329;48.402;11.718;2024-02-28T08:49:22;96450.38;;;7.14;89.36
25392;BME280;13329;48.402;11.718;2024-02-28T08:51:47;96447.88;;;7.19;88.69
25392;BME280;13329;48.402;11.718;2024-02-28T08:54:13;96454.41;;;7.28;88.45
25392;BME280;13329;48.402;11.718;2024-02-28T08:56:38;96456.88;;;7.23;87.62
25392;BME280;13329;48.402;11.718;2024-02-28T08:59:03;96458.16;;;7.32;87.17
25392;BME280;13329;48.402;11.718;2024-02-28T09:01:29;96461.25;;;7.29;86.96
25392;BME280;13329;48.402;11.718;2024-02-28T09:03:54;96460.72;;;7.09;88.64
25392;BME280;13329;48.402;11.718;2024-02-28T09:06:19;96462.97;;;7.24;88.53
25392;BME280;13329;48.402;11.718;2024-02-28T09:08:44;96458.81;;;7.16;88.39
25392;BME280;13329;48.402;11.718;2024-02-28T09:11:10;96461.03;;;7.42;87.35
25392;BME280;13329;48.402;11.718;2024-02-28T09:13:35;96460.50;;;7.52;87.23
25392;BME280;13329;48.402;11.718;2024-02-28T09:16:01;96464.25;;;7.44;86.33
25392;BME280;13329;48.402;11.718;2024-02-28T09:18:26;96472.38;;;7.55;85.78
25392;BME280;13329;48.402;11.718;2024-02-28T09:20:52;96479.47;;;7.78;84.78
25392;BME280;13329;48.402;11.718;2024-02-28T09:23:18;96474.22;;;7.78;84.58
25392;BME280;13329;48.402;11.718;2024-02-28T09:25:43;96479.81;;;7.93;83.55
25392;BME280;13329;48.402;11.718;2024-02-28T09:28:08;96471.38;;;8.03;83.55
25392;BME280;13329;48.402;11.718;2024-02-28T09:30:37;96480.50;;;7.88;83.76
25392;BME280;13329;48.402;11.718;2024-02-28T09:33:03;96484.41;;;7.86;83.49
25392;BME280;13329;48.402;11.718;2024-02-28T09:35:28;96479.47;;;7.78;83.64
25392;BME280;13329;48.402;11.718;2024-02-28T09:37:53;96480.84;;;7.80;83.30
25392;BME280;13329;48.402;11.718;2024-02-28T09:40:19;96484.38;;;7.62;84.83
25392;BME280;13329;48.402;11.718;2024-02-28T09:42:49;96481.63;;;7.69;85.13
25392;BME280;13329;48.402;11.718;2024-02-28T09:45:17;96482.53;;;7.63;84.84
25392;BME280;13329;48.402;11.718;2024-02-28T09:47:43;96486.75;;;7.52;84.93
25392;BME280;13329;48.402;11.718;2024-02-28T09:50:08;96489.41;;;7.64;84.51
25392;BME280;13329;48.402;11.718;2024-02-28T09:52:34;96502.78;;;7.86;83.24
25392;BME280;13329;48.402;11.718;2024-02-28T09:55:00;96500.84;;;7.81;82.45
25392;BME280;13329;48.402;11.718;2024-02-28T09:57:26;96505.63;;;7.84;82.74
25392;BME280;13329;48.402;11.718;2024-02-28T09:59:55;96503.81;;;7.96;82.03
25392;BME280;13329;48.402;11.718;2024-02-28T10:02:23;96520.97;;;8.11;82.22
25392;BME280;13329;48.402;11.718;2024-02-28T10:04:48;96509.84;;;8.32;80.67
25392;BME280;13329;48.402;11.718;2024-02-28T10:07:14;96518.41;;;8.28;80.69
25392;BME280;13329;48.402;11.718;2024-02-28T10:09:42;96508.16;;;8.26;80.75
25392;BME280;13329;48.402;11.718;2024-02-28T10:12:08;96511.47;;;8.45;79.69
25392;BME280;13329;48.402;11.718;2024-02-28T10:14:33;96511.59;;;8.15;80.98
25392;BME280;13329;48.402;11.718;2024-02-28T10:16:59;96514.91;;;8.34;80.76
25392;BME280;13329;48.402;11.718;2024-02-28T10:19:25;96512.72;;;8.07;80.83
25392;BME280;13329;48.402;11.718;2024-02-28T10:21:51;96512.16;;;8.17;80.04
25392;BME280;13329;48.402;11.718;2024-02-28T10:24:16;96516.75;;;8.10;81.02
25392;BME280;13329;48.402;11.718;2024-02-28T10:26:46;96522.44;;;8.30;80.18
25392;BME280;13329;48.402;11.718;2024-02-28T10:29:23;96521.06;;;8.51;79.44
25392;BME280;13329;48.402;11.718;2024-02-28T10:31:55;96532.00;;;8.71;78.17
25392;BME280;13329;48.402;11.718;2024-02-28T10:34:20;96521.63;;;8.65;79.13
25392;BME280;13329;48.402;11.718;2024-02-28T10:36:46;96531.09;;;8.66;77.88
25392;BME280;13329;48.402;11.718;2024-02-28T10:39:13;96524.13;;;8.60;78.35
25392;BME280;13329;48.402;11.718;2024-02-28T10:41:39;96528.00;;;8.69;78.17
25392;BME280;13329;48.402;11.718;2024-02-28T10:44:04;96526.22;;;8.98;76.81
25392;BME280;13329;48.402;11.718;2024-02-28T10:46:33;96524.75;;;8.90;76.66
25392;BME280;13329;48.402;11.718;2024-02-28T10:48:58;96530.78;;;8.51;76.98
25392;BME280;13329;48.402;11.718;2024-02-28T10:51:24;96533.66;;;8.37;77.93
25392;BME280;13329;48.402;11.718;2024-02-28T10:54:08;96533.50;;;8.32;78.95
25392;BME280;13329;48.402;11.718;2024-02-28T10:56:42;96538.91;;;8.37;78.50
25392;BME280;13329;48.402;11.718;2024-02-28T10:59:09;96547.50;;;8.44;77.75
25392;BME280;13329;48.402;11.718;2024-02-28T11:01:36;96542.09;;;8.28;79.17
25392;BME280;13329;48.402;11.718;2024-02-28T11:04:03;96539.22;;;8.53;77.92
25392;BME280;13329;48.402;11.718;2024-02-28T11:06:28;96539.81;;;8.55;77.01
25392;BME280;13329;48.402;11.718;2024-02-28T11:08:54;96536.72;;;8.58;77.01
25392;BME280;13329;48.402;11.718;2024-02-28T11:11:22;96534.66;;;8.60;76.74
25392;BME280;13329;48.402;11.718;2024-02-28T11:13:57;96533.63;;;8.61;76.17
25392;BME280;13329;48.402;11.718;2024-02-28T11:16:32;96543.09;;;8.62;76.56
25392;BME280;13329;48.402;11.718;2024-02-28T11:18:58;96543.56;;;8.35;76.82
25392;BME280;13329;48.402;11.718;2024-02-28T11:21:25;96546.78;;;8.37;77.84
25392;BME280;13329;48.402;11.718;2024-02-28T11:23:51;96546.22;;;8.47;77.05
25392;BME280;13329;48.402;11.718;2024-02-28T11:26:16;96555.28;;;8.39;77.15
25392;BME280;13329;48.402;11.718;2024-02-28T11:28:43;96550.44;;;8.13;77.05
25392;BME280;13329;48.402;11.718;2024-02-28T11:31:09;96542.31;;;8.26;77.95
25392;BME280;13329;48.402;11.718;2024-02-28T11:33:35;96542.91;;;8.52;76.76
25392;BME280;13329;48.402;11.718;2024-02-28T11:36:01;96545.38;;;8.70;77.03
25392;BME280;13329;48.402;11.718;2024-02-28T11:38:28;96552.19;;;8.94;75.75
25392;BME280;13329;48.402;11.718;2024-02-28T11:40:54;96543.47;;;9.06;74.76
25392;BME280;13329;48.402;11.718;2024-02-28T11:43:22;96538.94;;;8.89;75.43
25392;BME280;13329;48.402;11.718;2024-02-28T11:45:48;96547.47;;;9.08;73.96
25392;BME280;13329;48.402;11.718;2024-02-28T11:48:14;96541.78;;;9.28;73.94
25392;BME280;13329;48.402;11.718;2024-02-28T11:50:40;96544.41;;;9.28;73.18
25392;BME280;13329;48.402;11.718;2024-02-28T11:53:06;96555.53;;;9.30;72.41
25392;BME280;13329;48.402;11.718;2024-02-28T11:55:32;96557.94;;;9.48;72.00
25392;BME280;13329;48.402;11.718;2024-02-28T11:57:57;96555.53;;;9.30;72.67
25392;BME280;13329;48.402;11.718;2024-02-28T12:00:23;96559.94;;;9.41;71.67
25392;BME280;13329;48.402;11.718;2024-02-28T12:02:48;96554.19;;;9.16;72.33
25392;BME280;13329;48.402;11.718;2024-02-28T12:05:14;96556.72;;;8.70;74.25
25392;BME280;13329;48.402;11.718;2024-02-28T12:07:39;96544.44;;;8.76;76.03
25392;BME280;13329;48.402;11.718;2024-02-28T12:10:05;96550.78;;;9.04;75.15
25392;BME280;13329;48.402;11.718;2024-02-28T12:12:31;96552.81;;;9.13;74.37
25392;BME280;13329;48.402;11.718;2024-02-28T12:14:58;96546.59;;;9.48;73.30
25392;BME280;13329;48.402;11.718;2024-02-28T12:17:25;96549.28;;;9.65;72.06
25392;BME280;13329;48.402;11.718;2024-02-28T12:19:51;96551.63;;;9.78;71.88
25392;BME280;13329;48.402;11.718;2024-02-28T12:22:16;96550.56;;;9.79;71.20
25392;BME280;13329;48.402;11.718;2024-02-28T12:24:41;96550.75;;;9.89;71.59
25392;BME280;13329;48.402;11.718;2024-02-28T12:27:07;96543.63;;;9.90;70.98
25392;BME280;13329;48.402;11.718;2024-02-28T12:29:32;96553.84;;;9.86;69.79
25392;BME280;13329;48.402;11.718;2024-02-28T12:31:57;96550.31;;;9.81;70.32
25392;BME280;13329;48.402;11.718;2024-02-28T12:34:23;96550.50;;;9.74;69.38
25392;BME280;13329;48.402;11.718;2024-02-28T12:36:48;96546.34;;;9.95;70.04
25392;BME280;13329;48.402;11.718;2024-02-28T12:39:13;96548.34;;;10.05;69.36
25392;BME280;13329;48.402;11.718;2024-02-28T12:41:39;96544.59;;;9.84;69.48
25392;BME280;13329;48.402;11.718;2024-02-28T12:44:07;96557.28;;;9.87;69.56
25392;BME280;13329;48.402;11.718;2024-02-28T12:46:34;96559.28;;;9.80;69.35
25392;BME280;13329;48.402;11.718;2024-02-28T12:48:59;96551.63;;;9.95;68.77
25392;BME280;13329;48.402;11.718;2024-02-28T12:51:42;96551.56;;;10.07;68.21
25392;BME280;13329;48.402;11.718;2024-02-28T12:54:08;96545.84;;;10.15;68.50